Kezdőlap
METAR-TAF:

METAR-TAF

Repülőterek :

Khadzsuráhó, India

földrajzi szélesség: 24-49-02N, földrajzi hosszúság: 79-55-07E, magasság: 222 m

Jelenlegi meteorológiai megfigyelések

A jelentés 2 órával és 20 perccel ezelõtt készült, 06:00 UTC
Nyugati szél 4 kt
Hőmérséklet 45°C
Páratartalom 14%
Légköri nyomás 994 hPa
Látótávolság: 5000 m
Száraz légköri homály,

METAR: VEKO 280600Z 27004KT 5000 HZ NSC 45/11 Q0994

Idő: 13:50 (08:20 UTC)

Előrejelzés

A jelentés 3 órával és 20 perccel ezelõtt készült, 05:00 UTC
Az előrejelzés 28-én 06 óra UTC és 28-én 15 óra UTC között érvényes
Nyugati szél 10 kt széllökések: 20 kt
Látótávolság: 5000 m
Kevés felhő 10000 lábon
Száraz légköri homály
28-én 07 óra UTC és 28-én 09 óra UTC között fokozatosan kialakuló
Látótávolság: 6000 m
Kevés felhő 10000 lábon

TAF: VEKO 280500Z 2806/2815 26010G20KT 5000 HZ FEW100 BECMG 2807/2809 6000 FEW100

Meteorológiai megfigyelések és előrejelzések több, mint 4000 repülőtéren (METAR és TAF jelentéseket).

A térképen piros és sárga pontok jelzik az elérhető meteorológiai állomásokat.

Mozgassa az egeret a pont fölött, hogy megjelenjen az állomás neve.

Azután kattintson az időjárási megfigyelések és előrejelzések megtekintéséhez.

A térkép megváltoztatása: kattintson a fekete keresztel jelölt zöld gombra ráközelítéshez, a vonallal jelölt zöld gombra távolításhoz, vagy a zöld nyilakra a szomszédos térképek eléréséhez.


METAR-TAF: